Dixon, NE (68732)

23:31 CDT le 25 juillet 2016 (GMT -0500)
Kneifl Shed | | Change Station

Alt. 1483 ft 42.57 °N, 96.94 °W | Updated 43 seconds ago

Clear
Ciel dégagé
69.8 ° F
Paraît 69.8 ° F
N
0.0
Vent Variable Vent de Sud
Gusts 13.0 mph

Aujourd'hui
Haut(e) -- | Bas -- ° F
--% Risque de précip.
Hier
Haut(e) -- | Bas -- ° F
Precip. -- pouce
Pression 30.11 pouce
Visibilité 10.0 Miles terrestres
Nuages Ciel dégagé
Point de rosée 64 ° F
Humidité 82%
Précipitations 0.00 pouce
Profondeur de la couche neigeuse Non disponible.
6:13 AM 8:54 PM
Lune gibbeuse décroissante, 59% visible
METAR KLCG 260415Z AUTO 19004KT 10SM CLR 20/18 A3011 RMK AO2 T01980176
Pression 30.11 pouce
Visibilité 10.0 Miles terrestres
Nuages Ciel dégagé
Point de rosée 64 ° F
Humidité 82%
Précipitations 0.00 pouce
Profondeur de la couche neigeuse Non disponible.
6:13 AM 8:54 PM
Lune gibbeuse décroissante, 59% visible
METAR KLCG 260415Z AUTO 19004KT 10SM CLR 20/18 A3011 RMK AO2 T01980176

10-Day Weather Forecast

Almanac

Astronomie

Jul. 25, 2016 Lever Coucher
Temps réel
Crépuscule civil
Crépuscule nautique
Crépuscule astronomique
Lune
Durée de lumière visible
Longueur du jour
Tomorrow will be .
, % of the Moon is Illuminated

Extrêmes aujourd'hui

State Highs State Lows

Community

WunderPhotos

Upload Photos

1,927,534 Photos téléchargées !

WunderBlog® & News

Nearby

Qualité de l'air

  Qualité de l'air Indice de la qualité de l'air Polluant
Not available.

Épaisseur de neige

Station Depth Altitude

Activité sismique

Ville Distance Mag. Time & Date
Minimum magnitude displayed is 2.5.

Températures des eaux côtières

Lieu Température

Stations

Stations météo à proximité

Emplacement de la station Température Refroidissement éolien Point de rosée Humidité Vent Precip. Alt. Mise à jour Type
                   

Watches & Warnings

There are currently no watches in effect.